createdAt,value
2023-02-05T00:00:08.052Z,-1.40
2023-02-05T00:02:35.210Z,-1.30
2023-02-05T00:05:02.570Z,-1.30
2023-02-05T00:07:30.588Z,-1.40
2023-02-05T00:10:01.320Z,-1.30
2023-02-05T00:12:29.847Z,-1.30
2023-02-05T00:14:58.486Z,-1.20
2023-02-05T00:17:25.415Z,-1.20
2023-02-05T00:19:55.792Z,-1.30
2023-02-05T00:22:23.166Z,-1.30
2023-02-05T00:24:50.908Z,-1.40
2023-02-05T00:27:18.937Z,-1.50
2023-02-05T00:29:45.831Z,-1.50
2023-02-05T00:32:12.793Z,-1.60
2023-02-05T00:34:39.745Z,-1.70
2023-02-05T00:37:07.111Z,-1.70
2023-02-05T00:39:34.357Z,-1.70
2023-02-05T00:42:01.757Z,-1.70
2023-02-05T00:44:29.328Z,-1.70
2023-02-05T00:46:56.318Z,-1.70
2023-02-05T00:49:23.931Z,-1.70
2023-02-05T00:51:50.895Z,-1.80
2023-02-05T00:54:18.734Z,-1.90
2023-02-05T00:56:46.889Z,-1.90
2023-02-05T00:59:13.875Z,-1.90
2023-02-05T01:01:42.053Z,-1.90
2023-02-05T01:04:09.445Z,-2.00
2023-02-05T01:06:36.299Z,-2.10
2023-02-05T01:09:04.011Z,-2.10
2023-02-05T01:11:31.040Z,-2.00
2023-02-05T01:13:58.447Z,-2.10
2023-02-05T01:16:25.229Z,-1.90
2023-02-05T01:18:56.891Z,-1.80
2023-02-05T01:21:28.548Z,-1.70
2023-02-05T01:23:56.488Z,-1.70
2023-02-05T01:26:23.928Z,-1.60
2023-02-05T01:28:53.510Z,-1.50
2023-02-05T01:31:22.703Z,-1.50
2023-02-05T01:33:58.833Z,-1.40
2023-02-05T01:36:28.656Z,-1.50
2023-02-05T01:38:58.248Z,-1.60
2023-02-05T01:41:26.298Z,-1.80
2023-02-05T01:44:18.730Z,-1.80
2023-02-05T01:46:46.815Z,-1.80
2023-02-05T01:49:25.687Z,-1.80
2023-02-05T01:51:55.918Z,-2.00
2023-02-05T01:54:25.948Z,-1.90
2023-02-05T01:56:59.547Z,-1.90
2023-02-05T01:59:30.205Z,-1.90
2023-02-05T02:01:59.382Z,-2.00
2023-02-05T02:04:47.341Z,-1.90
2023-02-05T02:07:20.365Z,-2.00
2023-02-05T02:09:50.037Z,-1.90
2023-02-05T02:12:24.301Z,-1.90
2023-02-05T02:14:55.555Z,-1.80
2023-02-05T02:17:23.783Z,-1.70
2023-02-05T02:20:07.277Z,-1.80
2023-02-05T02:22:55.388Z,-1.90
2023-02-05T02:25:35.465Z,-2.00
2023-02-05T02:28:03.699Z,-2.00
2023-02-05T02:30:47.007Z,-2.10
2023-02-05T02:33:33.450Z,-2.20
2023-02-05T02:36:29.264Z,-2.20
2023-02-05T02:39:19.347Z,-2.30
2023-02-05T02:42:02.825Z,-2.20
2023-02-05T02:45:11.265Z,-2.10
2023-02-05T02:47:45.410Z,-2.20
2023-02-05T02:50:33.779Z,-2.10
2023-02-05T02:53:11.901Z,-1.90
2023-02-05T02:55:45.256Z,-2.10
2023-02-05T02:58:18.731Z,-2.10
2023-02-05T03:00:46.819Z,-2.20
2023-02-05T03:03:20.100Z,-2.20
2023-02-05T03:05:51.285Z,-2.30
2023-02-05T03:08:28.345Z,-2.40
2023-02-05T03:11:08.484Z,-2.50
2023-02-05T03:13:36.222Z,-2.50
2023-02-05T03:16:03.761Z,-2.50
2023-02-05T03:18:32.022Z,-2.50
2023-02-05T03:21:06.427Z,-2.40
2023-02-05T03:23:33.634Z,-2.40
2023-02-05T03:26:00.713Z,-2.50
2023-02-05T03:28:27.644Z,-2.50
2023-02-05T03:31:11.232Z,-2.40
2023-02-05T03:34:03.093Z,-2.20
2023-02-05T03:36:53.152Z,-2.10
2023-02-05T03:39:37.873Z,-2.10
2023-02-05T03:42:50.671Z,-2.10
2023-02-05T03:45:44.999Z,-2.20
2023-02-05T03:48:22.216Z,-2.30
2023-02-05T03:51:17.312Z,-2.30
2023-02-05T03:54:07.129Z,-2.40
2023-02-05T03:56:38.462Z,-2.50
2023-02-05T03:59:06.336Z,-2.50
2023-02-05T04:01:34.838Z,-2.50
2023-02-05T04:04:04.294Z,-2.60
2023-02-05T04:06:32.085Z,-2.60
2023-02-05T04:09:00.730Z,-2.60
2023-02-05T04:11:29.839Z,-2.60
2023-02-05T04:13:57.017Z,-2.60
2023-02-05T04:16:31.390Z,-2.50
2023-02-05T04:18:59.755Z,-2.50
2023-02-05T04:21:27.948Z,-2.50
2023-02-05T04:23:58.676Z,-2.60
2023-02-05T04:26:26.084Z,-2.70
2023-02-05T04:28:53.593Z,-2.60
2023-02-05T04:31:20.523Z,-2.60
2023-02-05T04:33:47.826Z,-2.60
2023-02-05T04:36:14.644Z,-2.70
2023-02-05T04:38:42.787Z,-2.70
2023-02-05T04:41:10.399Z,-2.90
2023-02-05T04:43:37.486Z,-2.90
2023-02-05T04:46:09.134Z,-2.90
2023-02-05T04:48:40.106Z,-2.90
2023-02-05T04:51:15.780Z,-2.90
2023-02-05T04:53:46.243Z,-2.80
2023-02-05T04:56:17.563Z,-3.00
2023-02-05T04:58:45.294Z,-2.90
2023-02-05T05:01:20.471Z,-3.00
2023-02-05T05:03:48.311Z,-3.00
2023-02-05T05:06:17.213Z,-3.10
2023-02-05T05:08:44.941Z,-3.00
2023-02-05T05:11:14.798Z,-3.00
2023-02-05T05:13:43.482Z,-2.90
2023-02-05T05:16:12.054Z,-2.90
2023-02-05T05:18:39.699Z,-3.00
2023-02-05T05:21:07.193Z,-3.00
2023-02-05T05:23:34.725Z,-2.80
2023-02-05T05:26:06.957Z,-2.80
2023-02-05T05:28:36.187Z,-2.90
2023-02-05T05:31:12.205Z,-2.80
2023-02-05T05:33:40.050Z,-2.90
2023-02-05T05:36:08.213Z,-3.00
2023-02-05T05:38:36.678Z,-2.90
2023-02-05T05:41:23.461Z,-2.90
2023-02-05T05:43:52.554Z,-2.90
2023-02-05T05:46:23.749Z,-2.70
2023-02-05T05:48:56.676Z,-2.70
2023-02-05T05:51:26.253Z,-2.70
2023-02-05T05:53:54.007Z,-2.80
2023-02-05T05:56:21.334Z,-2.80
2023-02-05T05:58:48.937Z,-2.80
2023-02-05T06:01:20.366Z,-2.90
2023-02-05T06:03:47.267Z,-2.90
2023-02-05T06:06:14.537Z,-2.80
2023-02-05T06:08:41.872Z,-3.00
2023-02-05T06:11:08.854Z,-3.10
2023-02-05T06:13:38.781Z,-3.30
2023-02-05T06:16:06.639Z,-3.10
2023-02-05T06:18:36.426Z,-3.20
2023-02-05T06:21:05.899Z,-3.40
2023-02-05T06:23:34.679Z,-3.40
2023-02-05T06:26:01.659Z,-3.40
2023-02-05T06:28:28.815Z,-3.30
2023-02-05T06:30:58.707Z,-3.50
2023-02-05T06:33:25.941Z,-3.60
2023-02-05T06:35:54.732Z,-3.60
2023-02-05T06:38:21.927Z,-3.70
2023-02-05T06:40:49.445Z,-3.60
2023-02-05T06:43:17.972Z,-3.60
2023-02-05T06:45:44.882Z,-3.70
2023-02-05T06:48:12.067Z,-3.60
2023-02-05T06:50:40.989Z,-3.50
2023-02-05T06:53:08.706Z,-3.50
2023-02-05T06:55:38.113Z,-3.50
2023-02-05T06:58:07.400Z,-3.40
2023-02-05T07:00:35.245Z,-3.50
2023-02-05T07:03:03.267Z,-3.50
2023-02-05T07:05:33.288Z,-3.50
2023-02-05T07:08:02.879Z,-3.40
2023-02-05T07:10:31.281Z,-3.50
2023-02-05T07:12:58.632Z,-3.40
2023-02-05T07:15:26.288Z,-3.40
2023-02-05T07:17:54.492Z,-3.40
2023-02-05T07:20:23.798Z,-3.40
2023-02-05T07:22:50.683Z,-3.30
2023-02-05T07:25:18.347Z,-3.10
2023-02-05T07:27:46.205Z,-3.00
2023-02-05T07:30:13.796Z,-2.90
2023-02-05T07:32:41.096Z,-2.90
2023-02-05T07:35:08.123Z,-2.70
2023-02-05T07:37:37.393Z,-2.40
2023-02-05T07:40:04.880Z,-2.20
2023-02-05T07:42:31.766Z,-1.80
2023-02-05T07:44:58.656Z,-1.50
2023-02-05T07:47:28.149Z,-0.80
2023-02-05T07:49:54.999Z,-0.10
2023-02-05T07:52:21.850Z,0.60
2023-02-05T07:54:49.242Z,1.60
2023-02-05T07:57:16.453Z,2.50
2023-02-05T07:59:43.384Z,3.50
2023-02-05T08:02:11.814Z,4.40
2023-02-05T08:04:39.196Z,4.70
2023-02-05T08:07:06.126Z,4.30
2023-02-05T08:09:33.322Z,4.60
2023-02-05T08:12:00.353Z,5.40
2023-02-05T08:14:27.747Z,6.20
2023-02-05T08:16:54.909Z,7.10
2023-02-05T08:19:22.622Z,7.70
2023-02-05T08:21:49.392Z,6.60
2023-02-05T08:24:16.509Z,4.80
2023-02-05T08:26:44.707Z,3.10
2023-02-05T08:29:12.269Z,1.70
2023-02-05T08:31:39.020Z,0.80
2023-02-05T08:34:07.599Z,0.30
2023-02-05T08:36:34.693Z,0.30
2023-02-05T08:39:07.124Z,0.30
2023-02-05T08:41:33.966Z,-0.20
2023-02-05T08:44:02.191Z,-0.30
2023-02-05T08:46:37.393Z,-0.20
2023-02-05T08:49:07.523Z,0.10
2023-02-05T08:51:36.224Z,0.70
2023-02-05T08:54:03.737Z,0.80
2023-02-05T08:56:30.970Z,0.20
2023-02-05T08:58:58.079Z,0.20
2023-02-05T09:01:25.795Z,0.50
2023-02-05T09:03:52.938Z,0.90
2023-02-05T09:06:19.724Z,0.90
2023-02-05T09:08:47.096Z,0.80
2023-02-05T09:11:13.999Z,1.30
2023-02-05T09:13:41.198Z,1.70
2023-02-05T09:16:11.623Z,2.10
2023-02-05T09:18:38.555Z,1.60
2023-02-05T09:21:10.969Z,1.00
2023-02-05T09:23:37.888Z,0.50
2023-02-05T09:26:05.517Z,0.70
2023-02-05T09:28:32.686Z,0.60
2023-02-05T09:31:06.363Z,0.30
2023-02-05T09:33:33.607Z,-0.20
2023-02-05T09:36:09.806Z,-0.40
2023-02-05T09:38:37.780Z,-0.40
2023-02-05T09:41:39.424Z,-0.50
2023-02-05T09:44:16.996Z,-0.40
2023-02-05T09:47:03.670Z,-0.40
2023-02-05T09:49:46.341Z,-0.40
2023-02-05T09:52:22.007Z,-0.10
2023-02-05T09:55:29.905Z,-0.10
2023-02-05T10:01:38.991Z,0.40
2023-02-05T10:04:57.209Z,1.00
2023-02-05T10:10:53.702Z,1.40
2023-02-05T10:13:33.165Z,1.40
2023-02-05T10:16:38.799Z,1.10
2023-02-05T10:19:05.663Z,0.90
2023-02-05T10:22:06.118Z,0.70
2023-02-05T10:25:04.464Z,0.50
2023-02-05T10:27:52.979Z,0.30
2023-02-05T10:30:42.377Z,0.10
2023-02-05T10:33:18.716Z,0.30
2023-02-05T10:35:58.957Z,0.40
2023-02-05T10:38:28.506Z,0.50
2023-02-05T10:41:00.370Z,0.50
2023-02-05T10:43:37.497Z,0.50
2023-02-05T10:46:05.618Z,0.40
2023-02-05T10:48:39.575Z,0.30
2023-02-05T10:51:24.568Z,0.20
2023-02-05T10:53:52.300Z,0.30
2023-02-05T10:56:20.281Z,0.30
2023-02-05T10:58:55.537Z,0.30
2023-02-05T11:01:27.710Z,0.20
2023-02-05T11:04:13.630Z,0.30
2023-02-05T11:06:52.502Z,0.20
2023-02-05T11:09:25.379Z,0.30
2023-02-05T11:12:02.510Z,0.20
2023-02-05T11:14:37.046Z,0.30
2023-02-05T11:17:25.423Z,0.30
2023-02-05T11:19:58.117Z,0.30
2023-02-05T11:22:30.753Z,0.40
2023-02-05T11:25:18.180Z,0.50
2023-02-05T11:27:54.866Z,0.40
2023-02-05T11:30:52.343Z,0.40
2023-02-05T11:33:28.480Z,0.50
2023-02-05T11:36:00.261Z,0.60
2023-02-05T11:38:46.405Z,0.80
2023-02-05T11:41:25.892Z,1.20
2023-02-05T11:43:56.530Z,1.40
2023-02-05T11:46:26.200Z,1.40
2023-02-05T11:48:58.340Z,1.40
2023-02-05T11:51:46.206Z,1.90
2023-02-05T11:54:26.150Z,1.90
2023-02-05T11:57:05.835Z,1.80
2023-02-05T11:59:33.311Z,1.80
2023-02-05T12:02:25.147Z,1.80
2023-02-05T12:04:58.871Z,1.50
2023-02-05T12:07:28.873Z,1.60
2023-02-05T12:09:59.484Z,1.80
2023-02-05T12:12:32.298Z,2.40
2023-02-05T12:15:11.115Z,2.40
2023-02-05T12:17:55.020Z,2.20
2023-02-05T12:20:43.936Z,1.90
2023-02-05T12:23:30.316Z,2.10
2023-02-05T12:25:57.036Z,2.20
2023-02-05T12:28:46.360Z,2.20
2023-02-05T12:31:19.794Z,2.30
2023-02-05T12:33:49.795Z,2.50
2023-02-05T12:36:47.356Z,2.60
2023-02-05T12:39:38.336Z,2.80
2023-02-05T12:42:26.353Z,2.50
2023-02-05T12:44:56.782Z,2.60
2023-02-05T12:47:38.456Z,2.70
2023-02-05T12:50:42.624Z,2.50
2023-02-05T12:53:28.700Z,2.10
2023-02-05T12:56:35.068Z,2.20
2023-02-05T12:59:16.977Z,2.00
2023-02-05T13:02:02.222Z,1.90
2023-02-05T13:05:05.411Z,1.70
2023-02-05T13:08:24.569Z,2.00
2023-02-05T13:10:58.957Z,2.50
2023-02-05T13:13:32.498Z,2.80
2023-02-05T13:16:09.721Z,3.10
2023-02-05T13:18:42.292Z,2.60
2023-02-05T13:21:36.697Z,2.50
2023-02-05T13:25:03.688Z,2.20
2023-02-05T13:28:00.983Z,2.00
2023-02-05T13:30:45.673Z,2.10
2023-02-05T13:33:13.091Z,2.20
2023-02-05T13:36:17.931Z,2.00
2023-02-05T13:39:24.334Z,1.70
2023-02-05T13:42:06.341Z,1.70
2023-02-05T13:44:41.975Z,1.60
2023-02-05T13:47:30.586Z,1.50
2023-02-05T13:50:33.922Z,1.60
2023-02-05T13:53:05.968Z,1.20
2023-02-05T13:55:48.020Z,1.00
2023-02-05T13:58:35.602Z,1.00
2023-02-05T14:01:21.420Z,1.00
2023-02-05T14:04:28.602Z,1.10
2023-02-05T14:07:06.357Z,1.10
2023-02-05T14:09:41.494Z,1.00
2023-02-05T14:12:21.987Z,1.10
2023-02-05T14:15:16.790Z,1.20
2023-02-05T14:17:43.524Z,1.10
2023-02-05T14:20:25.912Z,1.10
2023-02-05T14:22:55.506Z,1.10
2023-02-05T14:25:45.868Z,1.30
2023-02-05T14:28:15.736Z,1.20
2023-02-05T14:30:48.038Z,1.50
2023-02-05T14:33:35.111Z,1.60
2023-02-05T14:36:22.103Z,1.50
2023-02-05T14:38:54.501Z,1.50
2023-02-05T14:41:35.898Z,1.60
2023-02-05T14:44:06.298Z,1.80
2023-02-05T14:46:41.341Z,1.60
2023-02-05T14:49:27.296Z,1.80
2023-02-05T14:52:00.241Z,2.10
2023-02-05T14:54:44.097Z,2.40
2023-02-05T14:57:39.993Z,2.50
2023-02-05T15:00:21.793Z,2.40
2023-02-05T15:03:07.174Z,2.30
2023-02-05T15:05:44.313Z,2.40
2023-02-05T15:08:43.716Z,2.50
2023-02-05T15:11:30.764Z,2.50
2023-02-05T15:14:19.688Z,2.50
2023-02-05T15:17:06.064Z,1.90
2023-02-05T15:19:46.283Z,1.80
2023-02-05T15:22:35.278Z,1.80
2023-02-05T15:25:08.641Z,1.80
2023-02-05T15:27:43.315Z,1.60
2023-02-05T15:30:18.189Z,1.60
2023-02-05T15:32:52.604Z,1.50
2023-02-05T15:35:22.677Z,1.00
2023-02-05T15:37:54.636Z,1.00
2023-02-05T15:40:38.770Z,0.80
2023-02-05T15:43:24.171Z,0.90
2023-02-05T15:45:57.967Z,1.10
2023-02-05T15:48:27.605Z,0.80
2023-02-05T15:51:19.287Z,1.10
2023-02-05T15:53:50.911Z,1.10
2023-02-05T15:56:21.019Z,1.10
2023-02-05T15:58:51.807Z,1.10
2023-02-05T16:01:30.782Z,0.90
2023-02-05T16:03:58.108Z,0.70
2023-02-05T16:06:26.886Z,0.70
2023-02-05T16:08:54.518Z,0.50
2023-02-05T16:11:30.298Z,0.40
2023-02-05T16:14:28.579Z,0.30
2023-02-05T16:17:20.436Z,0.20
2023-02-05T16:19:50.024Z,0.10
2023-02-05T16:22:35.963Z,0.10
2023-02-05T16:25:13.702Z,0.00
2023-02-05T16:27:47.436Z,-0.40
2023-02-05T16:30:21.420Z,-0.60
2023-02-05T16:32:48.853Z,-0.60
2023-02-05T16:35:27.657Z,-0.50
2023-02-05T16:37:55.475Z,-0.40
2023-02-05T16:40:36.337Z,-0.30
2023-02-05T16:43:25.560Z,-0.40
2023-02-05T16:46:10.327Z,-0.50
2023-02-05T16:48:39.317Z,-0.50
2023-02-05T16:51:08.988Z,-0.60
2023-02-05T16:53:37.694Z,-0.60
2023-02-05T16:56:26.975Z,-0.60
2023-02-05T16:58:57.638Z,-0.70
2023-02-05T17:01:34.525Z,-0.70
2023-02-05T17:04:01.790Z,-0.80
2023-02-05T17:06:37.262Z,-0.80
2023-02-05T17:09:05.994Z,-0.90
2023-02-05T17:11:42.468Z,-0.90
2023-02-05T17:14:32.771Z,-0.90
2023-02-05T17:17:15.641Z,-0.90
2023-02-05T17:19:42.770Z,-0.90
2023-02-05T17:22:16.276Z,-1.00
2023-02-05T17:24:49.343Z,-1.00
2023-02-05T17:27:37.515Z,-1.00
2023-02-05T17:30:11.660Z,-1.10
2023-02-05T17:32:38.501Z,-1.10
2023-02-05T17:35:17.180Z,-1.10
2023-02-05T17:37:44.529Z,-1.10
2023-02-05T17:40:15.334Z,-1.20
2023-02-05T17:42:42.734Z,-1.20
2023-02-05T17:45:18.361Z,-1.20
2023-02-05T17:47:45.757Z,-1.30
2023-02-05T17:50:12.740Z,-1.30
2023-02-05T17:52:39.980Z,-1.40
2023-02-05T17:55:10.266Z,-1.40
2023-02-05T17:57:37.505Z,-1.40
2023-02-05T18:00:05.104Z,-1.40
2023-02-05T18:02:32.186Z,-1.40
2023-02-05T18:04:58.991Z,-1.40
2023-02-05T18:07:26.376Z,-1.40
2023-02-05T18:09:54.786Z,-1.40
2023-02-05T18:12:21.762Z,-1.40
2023-02-05T18:14:48.622Z,-1.40
2023-02-05T18:17:15.857Z,-1.40
2023-02-05T18:19:42.659Z,-1.40
2023-02-05T18:22:09.733Z,-1.50
2023-02-05T18:24:37.297Z,-1.50
2023-02-05T18:27:08.110Z,-1.40
2023-02-05T18:29:35.993Z,-1.40
2023-02-05T18:32:03.661Z,-1.40
2023-02-05T18:34:30.558Z,-1.40
2023-02-05T18:36:57.735Z,-1.40
2023-02-05T18:39:29.581Z,-1.40
2023-02-05T18:41:57.595Z,-1.50
2023-02-05T18:44:25.925Z,-1.50
2023-02-05T18:46:53.593Z,-1.50
2023-02-05T18:49:20.711Z,-1.40
2023-02-05T18:51:47.948Z,-1.30
2023-02-05T18:54:14.806Z,-1.40
2023-02-05T18:56:41.612Z,-1.30
2023-02-05T18:59:12.897Z,-1.30
2023-02-05T19:01:41.014Z,-1.30
2023-02-05T19:04:10.388Z,-1.30
2023-02-05T19:06:43.567Z,-1.30
2023-02-05T19:09:11.928Z,-1.30
2023-02-05T19:11:41.813Z,-1.30
2023-02-05T19:14:11.890Z,-1.30
2023-02-05T19:16:40.450Z,-1.30
2023-02-05T19:19:07.598Z,-1.30
2023-02-05T19:21:34.757Z,-1.20
2023-02-05T19:24:05.623Z,-1.30
2023-02-05T19:26:34.616Z,-1.30
2023-02-05T19:29:04.849Z,-1.20
2023-02-05T19:31:36.111Z,-1.10
2023-02-05T19:34:05.790Z,-1.40
2023-02-05T19:36:37.067Z,-1.40
2023-02-05T19:39:06.115Z,-1.30
2023-02-05T19:41:35.171Z,-1.20
2023-02-05T19:44:04.805Z,-1.00
2023-02-05T19:46:36.780Z,-1.30
2023-02-05T19:49:08.727Z,-1.30
2023-02-05T19:51:37.411Z,-1.40
2023-02-05T19:54:05.034Z,-1.30
2023-02-05T19:56:32.809Z,-1.30
2023-02-05T19:58:59.751Z,-1.20
2023-02-05T20:01:28.799Z,-1.40
2023-02-05T20:04:00.008Z,-1.40
2023-02-05T20:06:33.938Z,-1.30
2023-02-05T20:09:02.317Z,-1.20
2023-02-05T20:11:32.674Z,-1.20
2023-02-05T20:14:06.078Z,-1.00
2023-02-05T20:16:33.848Z,-1.00
2023-02-05T20:19:01.146Z,-0.90
2023-02-05T20:21:29.032Z,-0.80
2023-02-05T20:23:57.389Z,-1.00
2023-02-05T20:26:26.239Z,-1.10
2023-02-05T20:29:14.896Z,-1.30
2023-02-05T20:31:45.869Z,-1.40
2023-02-05T20:34:20.640Z,-1.40
2023-02-05T20:36:52.928Z,-1.50
2023-02-05T20:39:21.079Z,-1.60
2023-02-05T20:41:49.561Z,-1.70
2023-02-05T20:44:17.647Z,-1.70
2023-02-05T20:46:45.308Z,-1.60
2023-02-05T20:49:13.592Z,-1.60
2023-02-05T20:51:40.515Z,-1.70
2023-02-05T20:54:09.129Z,-1.60
2023-02-05T20:56:36.471Z,-1.50
2023-02-05T20:59:05.766Z,-1.50
2023-02-05T21:01:34.748Z,-1.60
2023-02-05T21:04:03.886Z,-1.60
2023-02-05T21:06:35.406Z,-1.50
2023-02-05T21:09:03.684Z,-1.60
2023-02-05T21:11:30.785Z,-1.60
2023-02-05T21:13:58.754Z,-1.50
2023-02-05T21:16:27.612Z,-1.50
2023-02-05T21:18:54.805Z,-1.50
2023-02-05T21:21:31.227Z,-1.50
2023-02-05T21:24:01.213Z,-1.40
2023-02-05T21:26:31.082Z,-1.30
2023-02-05T21:29:00.653Z,-1.30
2023-02-05T21:31:34.179Z,-1.20
2023-02-05T21:34:02.146Z,-1.00
2023-02-05T21:36:30.172Z,-1.00
2023-02-05T21:38:57.167Z,-0.80
2023-02-05T21:41:24.847Z,-0.70
2023-02-05T21:43:59.503Z,-0.70
2023-02-05T21:46:29.398Z,-0.50
2023-02-05T21:48:58.130Z,-0.70
2023-02-05T21:51:27.500Z,-0.60
2023-02-05T21:53:57.808Z,-0.60
2023-02-05T21:56:34.254Z,-0.60
2023-02-05T21:59:01.222Z,-0.50
2023-02-05T22:01:31.276Z,-0.50
2023-02-05T22:04:00.602Z,-0.40
2023-02-05T22:06:30.654Z,-0.60
2023-02-05T22:08:58.979Z,-0.60
2023-02-05T22:11:27.292Z,-0.60
2023-02-05T22:13:55.406Z,-0.70
2023-02-05T22:16:24.602Z,-0.80
2023-02-05T22:18:52.934Z,-1.30
2023-02-05T22:21:25.409Z,-1.60
2023-02-05T22:23:54.298Z,-1.70
2023-02-05T22:26:24.153Z,-1.80
2023-02-05T22:28:51.789Z,-2.20
2023-02-05T22:31:20.149Z,-2.20
2023-02-05T22:33:49.240Z,-2.00
2023-02-05T22:36:18.103Z,-1.90
2023-02-05T22:38:45.760Z,-1.90
2023-02-05T22:41:25.137Z,-2.00
2023-02-05T22:43:53.574Z,-2.10
2023-02-05T22:46:23.001Z,-2.20
2023-02-05T22:48:51.941Z,-2.10
2023-02-05T22:51:24.780Z,-2.30
2023-02-05T22:53:55.449Z,-2.30
2023-02-05T22:56:23.197Z,-2.20
2023-02-05T22:58:51.733Z,-2.20
2023-02-05T23:01:20.620Z,-2.00
2023-02-05T23:03:49.317Z,-2.10
2023-02-05T23:06:28.246Z,-2.10
2023-02-05T23:09:05.830Z,-2.00
2023-02-05T23:11:33.800Z,-2.00
2023-02-05T23:14:02.330Z,-1.90
2023-02-05T23:16:41.027Z,-1.90
2023-02-05T23:19:11.244Z,-1.90
2023-02-05T23:21:39.594Z,-1.90
2023-02-05T23:24:06.824Z,-1.80
2023-02-05T23:26:40.154Z,-2.00
2023-02-05T23:29:07.297Z,-1.90
2023-02-05T23:31:35.729Z,-1.80
2023-02-05T23:34:03.432Z,-1.70
2023-02-05T23:36:30.285Z,-1.60
2023-02-05T23:38:57.219Z,-1.50
2023-02-05T23:41:36.562Z,-1.50
2023-02-05T23:44:07.646Z,-1.60
2023-02-05T23:46:35.745Z,-1.70
2023-02-05T23:49:03.328Z,-1.90
2023-02-05T23:51:30.221Z,-2.00
2023-02-05T23:53:57.034Z,-2.00
2023-02-05T23:56:24.209Z,-2.00
2023-02-05T23:58:51.223Z,-2.00
